Time;durP1;ratioP1;P1;durP2;ratioP2;P2;SDS_P1;SDS_P2;PMS_P1;PMS_P2;Temp;Humidity;BMP_temperature;BMP_pressure;BME280_temperature;BME280_humidity;BME280_pressure;Samples;Min_cycle;Max_cycle;Signal;HPM_P1;HPM_P2
2023/07/26 00:00:53;;;;;;;3.90;1.90;;;13.30;99.90;;;;;;5010028;28;20181;-64
2023/07/26 00:03:18;;;;;;;3.97;1.80;;;13.10;99.90;;;;;;5007658;28;20196;-64
2023/07/26 00:05:44;;;;;;;5.57;2.17;;;13.20;99.90;;;;;;5009262;28;20705;-64
2023/07/26 00:08:10;;;;;;;4.47;2.13;;;;;;;;;;5008951;28;20198;-64
2023/07/26 00:10:36;;;;;;;9.17;2.20;;;;;;;;;;5008954;28;20178;-64
2023/07/26 00:13:03;;;;;;;3.85;1.90;;;13.10;99.90;;;;;;5012726;28;20181;-64
2023/07/26 00:15:28;;;;;;;6.97;1.93;;;13.20;99.90;;;;;;5008601;28;20224;-64
2023/07/26 00:17:55;;;;;;;4.65;2.08;;;;;;;;;;5009818;28;20583;-64
2023/07/26 00:20:20;;;;;;;4.03;1.73;;;12.90;99.90;;;;;;5008265;28;20174;-64
2023/07/26 00:22:46;;;;;;;6.97;2.53;;;12.80;99.90;;;;;;5009788;28;20231;-64
2023/07/26 00:25:12;;;;;;;3.17;1.97;;;12.90;99.90;;;;;;5007854;28;20228;-64
2023/07/26 00:27:37;;;;;;;3.83;1.90;;;13.00;99.90;;;;;;5008896;28;20179;-66
2023/07/26 00:30:04;;;;;;;6.70;2.40;;;12.80;99.90;;;;;;5008540;28;20178;-64
2023/07/26 00:32:30;;;;;;;6.63;2.20;;;;;;;;;;5009629;28;20174;-64
2023/07/26 00:34:56;;;;;;;6.07;2.17;;;;;;;;;;5008185;28;20560;-64
2023/07/26 00:37:22;;;;;;;4.90;2.63;;;;;;;;;;5008737;28;20202;-64
2023/07/26 00:39:47;;;;;;;3.43;2.00;;;13.00;99.90;;;;;;5014086;28;20538;-64
2023/07/26 00:42:17;;;;;;;4.63;2.13;;;13.00;99.90;;;;;;5007945;28;20178;-64
2023/07/26 00:44:43;;;;;;;5.53;2.03;;;12.90;99.90;;;;;;5009488;28;20194;-63
2023/07/26 00:47:09;;;;;;;5.03;2.05;;;12.90;99.90;;;;;;5007770;28;20177;-64
2023/07/26 00:49:35;;;;;;;4.93;2.10;;;12.90;99.90;;;;;;4997153;28;20218;-63
2023/07/26 00:52:01;;;;;;;5.80;2.37;;;12.80;99.90;;;;;;5008044;28;20677;-64
2023/07/26 00:54:27;;;;;;;4.53;2.20;;;12.60;99.90;;;;;;5009063;28;20178;-63
2023/07/26 00:56:53;;;;;;;6.35;2.20;;;12.50;99.90;;;;;;5008809;28;20211;-63
2023/07/26 00:59:19;;;;;;;6.37;2.30;;;12.70;99.90;;;;;;5011915;28;20548;-64
2023/07/26 01:01:44;;;;;;;9.40;2.40;;;12.70;99.90;;;;;;5012076;28;20175;-64
2023/07/26 01:04:10;;;;;;;5.03;2.00;;;12.80;99.90;;;;;;5011864;28;20190;-64
2023/07/26 01:06:39;;;;;;;4.20;2.17;;;12.70;99.90;;;;;;5012897;28;20625;-64
2023/07/26 01:09:24;;;;;;;7.53;2.30;;;12.60;99.90;;;;;;5011493;28;20230;-65
2023/07/26 01:11:58;;;;;;;5.90;2.10;;;12.60;99.90;;;;;;5011557;28;20680;-64
2023/07/26 01:14:45;;;;;;;7.77;2.27;;;12.60;99.90;;;;;;5012759;28;20178;-64
2023/07/26 01:17:11;;;;;;;4.30;1.90;;;12.50;99.90;;;;;;5011469;28;20186;-64
2023/07/26 01:19:36;;;;;;;11.57;2.30;;;12.40;99.90;;;;;;5012427;28;20194;-64
2023/07/26 01:22:02;;;;;;;9.03;2.50;;;12.40;99.90;;;;;;5011626;28;20193;-64
2023/07/26 01:24:28;;;;;;;13.17;2.10;;;12.40;99.90;;;;;;5011858;28;20189;-64
2023/07/26 01:26:54;;;;;;;7.30;2.30;;;12.40;99.90;;;;;;5011394;28;20222;-65
2023/07/26 01:29:19;;;;;;;8.20;2.20;;;12.40;99.90;;;;;;5012658;28;20290;-64
2023/07/26 01:31:46;;;;;;;9.37;2.40;;;12.50;99.90;;;;;;5011192;28;20179;-64
2023/07/26 01:34:13;;;;;;;4.77;2.50;;;12.40;99.90;;;;;;5011924;28;20194;-64
2023/07/26 01:36:40;;;;;;;6.60;2.40;;;12.40;99.90;;;;;;5012453;28;20261;-64
2023/07/26 01:39:06;;;;;;;5.13;2.43;;;12.30;99.90;;;;;;5011090;28;20183;-62
2023/07/26 01:41:33;;;;;;;3.37;2.00;;;12.20;99.90;;;;;;5018480;28;20182;-62
2023/07/26 01:43:58;;;;;;;4.50;2.60;;;12.10;99.90;;;;;;5010811;28;20179;-62
2023/07/26 01:46:24;;;;;;;7.33;2.23;;;12.10;99.90;;;;;;5011562;28;20178;-63
2023/07/26 01:48:50;;;;;;;5.73;2.20;;;12.00;99.90;;;;;;5010500;28;20221;-62
2023/07/26 01:51:16;;;;;;;10.03;2.47;;;12.00;99.90;;;;;;5012289;28;20174;-62
2023/07/26 01:53:43;;;;;;;9.60;2.30;;;11.70;99.90;;;;;;5010706;28;20190;-62
2023/07/26 01:56:08;;;;;;;6.43;2.20;;;11.70;99.90;;;;;;5011860;28;20218;-62
2023/07/26 01:58:34;;;;;;;5.03;2.27;;;;;;;;;;5010629;28;20221;-62
2023/07/26 02:01:03;;;;;;;4.20;2.17;;;11.80;99.90;;;;;;5011162;28;20239;-62
2023/07/26 02:03:29;;;;;;;4.17;2.23;;;;;;;;;;5011164;28;20178;-63
2023/07/26 02:05:54;;;;;;;4.27;2.20;;;11.80;99.90;;;;;;5010783;28;20167;-62
2023/07/26 02:08:21;;;;;;;5.73;2.30;;;11.70;99.90;;;;;;5011135;28;20221;-62
2023/07/26 02:10:47;;;;;;;10.13;2.53;;;12.00;99.90;;;;;;5010233;28;20179;-62
2023/07/26 02:13:13;;;;;;;8.77;2.40;;;;;;;;;;5010874;28;20189;-62
2023/07/26 02:15:39;;;;;;;3.90;2.57;;;12.00;99.90;;;;;;5010581;28;20178;-62
2023/07/26 02:18:06;;;;;;;6.50;2.70;;;11.80;99.90;;;;;;5010785;28;20173;-62
2023/07/26 02:20:32;;;;;;;6.33;2.60;;;11.90;99.90;;;;;;5009900;28;20553;-62
2023/07/26 02:22:59;;;;;;;5.57;2.53;;;;;;;;;;5010918;28;20185;-62
2023/07/26 02:25:24;;;;;;;5.83;2.20;;;12.10;99.90;;;;;;5010346;28;20179;-63
2023/07/26 02:27:51;;;;;;;6.97;2.73;;;12.10;99.90;;;;;;5010775;28;20178;-62
2023/07/26 02:30:16;;;;;;;3.83;2.20;;;11.80;99.90;;;;;;5010412;28;20237;-63
2023/07/26 02:32:42;;;;;;;6.70;2.67;;;11.60;99.90;;;;;;5011533;28;20572;-62
2023/07/26 02:35:08;;;;;;;6.53;2.30;;;11.80;99.90;;;;;;5010529;28;20182;-62
2023/07/26 02:37:34;;;;;;;4.03;2.20;;;11.70;99.90;;;;;;5010044;28;20719;-62
2023/07/26 02:40:00;;;;;;;5.10;2.67;;;11.90;99.90;;;;;;5010677;28;20179;-62
2023/07/26 02:42:27;;;;;;;6.57;2.87;;;12.10;99.90;;;;;;5009935;28;20763;-63
2023/07/26 02:44:54;;;;;;;7.40;2.77;;;11.90;99.90;;;;;;5002499;28;20210;-62
2023/07/26 02:47:20;;;;;;;7.80;2.83;;;11.90;99.90;;;;;;5008642;28;20189;-63
2023/07/26 02:49:46;;;;;;;8.67;2.20;;;12.00;99.90;;;;;;5011041;28;20218;-63
2023/07/26 02:52:12;;;;;;;6.63;2.60;;;11.80;99.90;;;;;;5009654;28;20180;-62
2023/07/26 02:54:37;;;;;;;4.93;2.20;;;11.60;99.90;;;;;;5010489;28;20214;-63
2023/07/26 02:57:03;;;;;;;5.60;2.50;;;11.50;99.90;;;;;;5009407;28;20237;-63
2023/07/26 02:59:29;;;;;;;5.37;2.70;;;10.90;99.90;;;;;;5010356;28;20174;-63
2023/07/26 03:01:54;;;;;;;7.47;2.53;;;11.20;99.90;;;;;;5010517;28;20233;-63
2023/07/26 03:04:20;;;;;;;12.50;2.93;;;11.10;99.90;;;;;;5010020;28;20641;-63
2023/07/26 03:06:46;;;;;;;9.57;3.10;;;11.20;99.90;;;;;;5010111;28;20549;-63
2023/07/26 03:09:11;;;;;;;8.10;2.80;;;11.10;99.90;;;;;;5009249;28;20210;-63
2023/07/26 03:11:37;;;;;;;5.63;2.70;;;;;;;;;;5010957;28;20672;-63
2023/07/26 03:14:03;;;;;;;4.50;2.30;;;;;;;;;;5008554;28;20653;-63
2023/07/26 03:16:30;;;;;;;5.47;2.80;;;;;;;;;;5009827;28;20195;-62
2023/07/26 03:18:55;;;;;;;8.20;2.50;;;10.90;99.90;;;;;;5009132;28;20233;-62
2023/07/26 03:21:21;;;;;;;8.77;2.97;;;11.10;99.90;;;;;;5008614;28;20653;-62
2023/07/26 03:23:47;;;;;;;6.37;2.50;;;11.10;99.90;;;;;;5009559;28;20194;-62
2023/07/26 03:26:13;;;;;;;6.43;3.10;;;11.10;99.90;;;;;;5009300;28;20539;-62
2023/07/26 03:28:39;;;;;;;6.73;2.60;;;11.10;99.90;;;;;;5009470;28;20270;-62
2023/07/26 03:31:05;;;;;;;5.43;3.00;;;11.10;99.90;;;;;;5009618;28;20189;-63
2023/07/26 03:33:30;;;;;;;4.10;2.23;;;11.30;99.90;;;;;;5010375;28;20178;-63
2023/07/26 03:35:56;;;;;;;5.00;2.60;;;11.10;99.90;;;;;;5009595;28;20205;-62
2023/07/26 03:38:22;;;;;;;4.97;2.87;;;11.10;99.90;;;;;;5002428;28;20521;-62
2023/07/26 03:40:47;;;;;;;6.33;2.80;;;11.20;99.90;;;;;;5007809;28;20202;-62
2023/07/26 03:43:13;;;;;;;6.60;2.63;;;11.20;99.90;;;;;;5010203;28;20213;-62
2023/07/26 03:45:39;;;;;;;11.30;2.47;;;11.10;99.90;;;;;;5009368;28;20194;-62
2023/07/26 03:48:05;;;;;;;5.37;2.30;;;11.10;99.90;;;;;;5009660;28;20207;-63
2023/07/26 03:50:33;;;;;;;10.10;3.10;;;11.10;99.90;;;;;;5008991;28;20179;-62
2023/07/26 03:52:59;;;;;;;6.03;2.67;;;10.60;99.90;;;;;;5005846;28;20178;-62
2023/07/26 03:55:24;;;;;;;6.03;2.80;;;11.10;99.90;;;;;;5009869;28;20526;-62
2023/07/26 03:58:17;;;;;;;8.00;2.90;;;11.20;99.90;;;;;;5009012;28;20229;-62
2023/07/26 04:00:43;;;;;;;8.03;2.90;;;11.00;99.90;;;;;;5008519;28;20183;-62
2023/07/26 04:03:09;;;;;;;7.03;2.93;;;11.10;99.90;;;;;;5009222;28;20634;-62
2023/07/26 04:05:34;;;;;;;6.27;2.50;;;11.00;99.90;;;;;;5008682;28;20178;-62
2023/07/26 04:08:00;;;;;;;4.57;2.43;;;11.00;99.90;;;;;;5009962;28;20246;-62
2023/07/26 04:10:26;;;;;;;4.97;2.30;;;11.00;99.90;;;;;;5008908;28;20178;-63
2023/07/26 04:12:52;;;;;;;7.73;2.73;;;11.00;99.90;;;;;;5009252;28;20198;-63
2023/07/26 04:15:18;;;;;;;4.43;2.73;;;11.10;99.90;;;;;;5010023;28;20270;-62
2023/07/26 04:17:44;;;;;;;7.70;3.20;;;11.00;99.90;;;;;;5008508;28;20602;-63
2023/07/26 04:20:10;;;;;;;7.00;2.80;;;10.90;99.90;;;;;;5010058;28;20179;-63
2023/07/26 04:22:36;;;;;;;8.30;2.63;;;10.90;99.90;;;;;;5008852;28;20277;-63
2023/07/26 04:25:02;;;;;;;13.20;2.47;;;10.90;99.90;;;;;;5010239;28;20281;-63
2023/07/26 04:27:27;;;;;;;6.97;2.43;;;10.90;99.90;;;;;;5007011;28;20289;-62
2023/07/26 04:29:53;;;;;;;7.10;2.97;;;10.90;99.90;;;;;;5009854;28;20580;-62
2023/07/26 04:32:19;;;;;;;8.47;2.90;;;10.80;99.90;;;;;;5010078;28;20178;-63
2023/07/26 04:34:44;;;;;;;5.40;2.87;;;10.80;99.90;;;;;;5012907;28;20285;-63
2023/07/26 04:37:10;;;;;;;6.10;2.80;;;10.80;99.90;;;;;;5013242;28;20186;-63
2023/07/26 04:39:36;;;;;;;5.10;2.67;;;10.70;99.90;;;;;;5012710;28;20679;-63
2023/07/26 04:42:01;;;;;;;4.73;2.70;;;10.90;99.90;;;;;;5013038;28;20655;-63
2023/07/26 04:44:27;;;;;;;5.67;2.63;;;10.90;99.90;;;;;;5012059;28;20182;-63
2023/07/26 04:46:53;;;;;;;5.93;2.63;;;10.90;99.90;;;;;;5013563;28;20178;-62
2023/07/26 04:49:19;;;;;;;10.40;2.73;;;10.90;99.90;;;;;;5012191;28;20218;-62
2023/07/26 04:51:44;;;;;;;13.00;2.90;;;11.00;99.90;;;;;;5012708;28;20175;-62
2023/07/26 04:54:10;;;;;;;7.77;3.00;;;10.90;99.90;;;;;;5011904;28;20186;-62
2023/07/26 04:56:36;;;;;;;7.77;3.20;;;10.90;99.90;;;;;;5013154;28;20225;-62
2023/07/26 04:59:01;;;;;;;9.87;2.63;;;10.90;99.90;;;;;;5011730;28;20183;-62
2023/07/26 05:01:27;;;;;;;5.37;2.70;;;10.90;99.90;;;;;;5012977;28;20255;-63
2023/07/26 05:03:53;;;;;;;7.40;3.00;;;11.00;99.90;;;;;;5012481;28;20193;-62
2023/07/26 05:06:18;;;;;;;6.00;2.80;;;11.00;99.90;;;;;;5012376;28;20261;-62
2023/07/26 05:08:47;;;;;;;4.80;2.67;;;11.00;99.90;;;;;;5012359;28;20746;-62
2023/07/26 05:11:13;;;;;;;6.70;2.83;;;11.10;99.90;;;;;;5011427;28;20180;-62
2023/07/26 05:13:38;;;;;;;10.30;2.90;;;11.20;99.90;;;;;;5013113;28;20257;-62
2023/07/26 05:16:04;;;;;;;8.80;2.63;;;11.20;99.90;;;;;;5010143;28;20178;-62
2023/07/26 05:18:30;;;;;;;10.20;3.40;;;11.20;99.90;;;;;;5012980;28;20689;-62
2023/07/26 05:20:55;;;;;;;9.87;2.60;;;11.30;99.90;;;;;;5011223;28;20661;-62
2023/07/26 05:23:21;;;;;;;5.23;2.53;;;11.40;99.90;;;;;;5012039;28;20670;-63
2023/07/26 05:25:47;;;;;;;5.30;2.53;;;11.40;99.90;;;;;;5011404;28;20641;-63
2023/07/26 05:28:13;;;;;;;5.40;2.47;;;11.50;99.90;;;;;;5010872;28;20210;-61
2023/07/26 05:30:42;;;;;;;8.13;2.80;;;11.70;99.90;;;;;;5011840;28;20530;-61
2023/07/26 05:33:08;;;;;;;5.73;2.50;;;11.70;99.90;;;;;;5012643;28;20205;-61
2023/07/26 05:35:34;;;;;;;10.27;3.47;;;11.70;99.90;;;;;;5011653;28;20185;-61
2023/07/26 05:38:02;;;;;;;6.17;2.60;;;11.80;99.90;;;;;;5011129;28;20245;-62
2023/07/26 05:40:28;;;;;;;8.53;2.87;;;11.90;99.90;;;;;;5013049;28;20190;-62
2023/07/26 05:42:53;;;;;;;8.73;2.93;;;12.00;99.90;;;;;;5010259;28;20175;-62
2023/07/26 05:45:19;;;;;;;7.20;3.17;;;12.00;99.90;;;;;;5009375;28;20203;-63
2023/07/26 05:47:45;;;;;;;13.50;3.00;;;12.20;99.90;;;;;;5010368;28;20681;-62
2023/07/26 05:50:11;;;;;;;5.53;2.80;;;12.30;99.90;;;;;;5012264;28;20186;-63
2023/07/26 05:52:37;;;;;;;12.70;3.30;;;12.40;99.90;;;;;;5010393;28;20178;-63
2023/07/26 05:55:04;;;;;;;13.30;3.50;;;12.80;99.90;;;;;;5011105;28;20171;-70
2023/07/26 05:57:29;;;;;;;9.20;4.00;;;12.60;99.90;;;;;;5010841;28;20222;-66
2023/07/26 05:59:55;;;;;;;4.37;2.83;;;12.80;99.90;;;;;;5011596;28;20182;-65
2023/07/26 06:02:21;;;;;;;6.87;3.53;;;12.90;99.90;;;;;;5010822;28;20695;-65
2023/07/26 06:04:47;;;;;;;10.70;3.10;;;12.60;99.90;;;;;;5010456;28;20193;-65
2023/07/26 06:07:15;;;;;;;7.32;3.38;;;13.30;99.90;;;;;;5011951;28;20162;-65
2023/07/26 06:09:40;;;;;;;7.37;3.77;;;13.20;99.90;;;;;;5010417;28;20222;-65
2023/07/26 06:12:07;;;;;;;10.23;3.67;;;13.30;99.90;;;;;;5012042;28;20525;-65
2023/07/26 06:14:32;;;;;;;9.23;3.70;;;13.40;99.90;;;;;;5010412;28;20205;-65
2023/07/26 06:20:26;;;;;;;7.70;3.95;;;13.60;99.90;;;;;;5006436;28;20289;-64
2023/07/26 06:22:52;;;;;;;8.35;3.78;;;13.40;99.90;;;;;;5010188;28;20273;-63
2023/07/26 06:25:17;;;;;;;7.55;3.30;;;13.50;99.90;;;;;;5010944;28;20178;-63
2023/07/26 06:27:43;;;;;;;8.10;3.92;;;13.50;99.90;;;;;;5010149;28;20668;-63
2023/07/26 06:30:09;;;;;;;15.13;4.50;;;13.50;99.90;;;;;;5011615;28;20780;-63
2023/07/26 06:32:35;;;;;;;6.93;3.60;;;13.50;99.90;;;;;;5001251;28;20290;-67
2023/07/26 06:35:00;;;;;;;9.20;4.25;;;13.50;99.90;;;;;;5010874;28;20273;-65
2023/07/26 06:37:26;;;;;;;9.07;4.00;;;13.50;99.90;;;;;;5010943;28;20668;-65
2023/07/26 06:39:52;;;;;;;10.40;4.57;;;13.50;99.90;;;;;;5010255;28;20202;-65
2023/07/26 06:42:17;;;;;;;13.02;3.55;;;13.50;99.90;;;;;;5011384;28;20179;-65
2023/07/26 06:44:43;;;;;;;8.88;3.72;;;13.60;99.90;;;;;;5009672;28;20572;-65
2023/07/26 06:47:08;;;;;;;8.82;4.00;;;13.60;99.90;;;;;;5010542;28;20182;-65
2023/07/26 06:49:35;;;;;;;12.23;4.10;;;13.60;99.90;;;;;;5009655;28;20306;-65
2023/07/26 06:52:01;;;;;;;8.82;3.80;;;13.70;99.90;;;;;;5011301;28;20297;-64
2023/07/26 06:54:26;;;;;;;10.23;4.35;;;13.70;99.90;;;;;;5011622;28;20669;-65
2023/07/26 06:56:52;;;;;;;19.33;4.85;;;14.10;99.90;;;;;;5009851;28;20573;-65
2023/07/26 06:59:20;;;;;;;10.80;4.15;;;14.00;99.90;;;;;;5008986;28;20190;-65
2023/07/26 07:01:45;;;;;;;9.25;3.58;;;14.10;99.90;;;;;;5010805;28;20178;-68
2023/07/26 07:04:11;;;;;;;12.43;3.50;;;;;;;;;;5002134;28;20684;-67
2023/07/26 07:06:37;;;;;;;5.47;2.97;;;14.30;99.90;;;;;;5009992;28;20186;-65
2023/07/26 07:09:04;;;;;;;11.60;3.65;;;14.40;99.90;;;;;;5009892;28;20214;-65
2023/07/26 07:11:30;;;;;;;11.60;3.90;;;14.70;99.90;;;;;;5009996;28;20182;-65
2023/07/26 07:13:56;;;;;;;8.68;3.90;;;14.70;99.90;;;;;;5010905;28;20232;-65
2023/07/26 07:16:22;;;;;;;10.80;3.42;;;14.70;99.90;;;;;;5008606;28;20178;-65
2023/07/26 07:18:48;;;;;;;9.27;3.78;;;14.90;99.90;;;;;;5009642;28;20221;-65
2023/07/26 07:21:14;;;;;;;11.55;3.90;;;15.00;99.90;;;;;;5008328;28;20179;-64
2023/07/26 07:23:40;;;;;;;9.13;4.15;;;15.40;99.90;;;;;;5009844;28;20558;-64
2023/07/26 07:26:06;;;;;;;10.48;3.90;;;15.10;99.90;;;;;;5008973;28;20174;-64
2023/07/26 07:28:31;;;;;;;13.07;3.92;;;15.30;99.90;;;;;;5009762;28;20608;-65
2023/07/26 07:30:57;;;;;;;8.70;3.50;;;15.50;99.90;;;;;;5012036;28;20190;-65
2023/07/26 07:33:23;;;;;;;13.00;4.35;;;15.60;99.90;;;;;;5008415;28;20232;-65
2023/07/26 07:35:49;;;;;;;9.82;4.30;;;15.60;99.90;;;;;;5009561;28;20629;-66
2023/07/26 07:38:15;;;;;;;12.88;4.40;;;15.70;99.90;;;;;;5008452;28;20716;-65
2023/07/26 07:40:41;;;;;;;9.48;3.90;;;15.90;99.90;;;;;;5010395;28;20189;-64
2023/07/26 07:43:07;;;;;;;7.50;3.70;;;16.00;99.90;;;;;;5008685;28;20594;-65
2023/07/26 07:45:41;;;;;;;7.63;4.50;;;16.10;99.90;;;;;;5009821;28;20198;-66
2023/07/26 07:48:08;;;;;;;9.07;4.30;;;16.20;99.90;;;;;;5008613;28;20380;-65
2023/07/26 07:50:33;;;;;;;10.15;4.47;;;16.20;99.90;;;;;;5008997;28;20198;-66
2023/07/26 07:52:59;;;;;;;10.82;3.85;;;16.30;99.90;;;;;;5008754;28;20185;-66
2023/07/26 07:55:25;;;;;;;13.73;4.13;;;16.50;99.90;;;;;;5010241;28;20178;-66
2023/07/26 07:57:51;;;;;;;8.73;4.10;;;16.00;99.90;;;;;;5008600;28;20720;-66
2023/07/26 08:00:17;;;;;;;8.30;4.20;;;16.90;99.90;;;;;;5009225;28;20182;-65
2023/07/26 08:03:03;;;;;;;7.90;3.63;;;16.80;99.90;;;;;;5008786;28;20216;-65
2023/07/26 08:05:29;;;;;;;10.80;4.35;;;16.90;99.90;;;;;;5008650;28;20648;-65
2023/07/26 08:07:54;;;;;;;7.45;3.35;;;17.20;99.90;;;;;;5017581;28;20189;-65
2023/07/26 08:10:21;;;;;;;7.68;3.58;;;17.10;99.90;;;;;;5015474;28;20660;-66
2023/07/26 08:12:47;;;;;;;7.75;3.35;;;17.20;99.90;;;;;;5015438;28;20190;-66
2023/07/26 08:15:13;;;;;;;9.75;3.50;;;17.10;99.90;;;;;;5015151;28;20190;-68
2023/07/26 08:17:40;;;;;;;7.60;3.90;;;17.50;99.90;;;;;;5015660;28;20178;-66
2023/07/26 08:20:06;;;;;;;6.95;3.58;;;17.60;99.90;;;;;;5015228;28;20201;-68
2023/07/26 08:22:32;;;;;;;7.38;4.07;;;17.60;99.90;;;;;;5011521;28;20179;-66
2023/07/26 08:24:58;;;;;;;7.18;3.65;;;17.50;99.90;;;;;;5015071;28;20233;-66
2023/07/26 08:27:23;;;;;;;6.80;3.50;;;17.50;99.90;;;;;;5014639;28;20537;-67
2023/07/26 08:29:49;;;;;;;7.20;3.70;;;17.60;99.90;;;;;;5015768;28;20550;-68
2023/07/26 08:32:42;;;;;;;6.28;3.65;;;17.80;99.90;;;;;;5007643;28;20693;-72
2023/07/26 08:35:08;;;;;;;11.07;3.83;;;17.80;99.90;;;;;;5014432;28;20218;-72
2023/07/26 08:37:33;;;;;;;8.20;3.20;;;18.20;99.90;;;;;;5016218;28;20587;-76
2023/07/26 08:40:00;;;;;;;7.53;3.80;;;18.50;99.90;;;;;;5014172;28;20175;-76
2023/07/26 08:42:26;;;;;;;6.43;3.35;;;18.60;99.90;;;;;;5015160;28;20174;-75
2023/07/26 08:44:53;;;;;;;5.60;3.53;;;18.60;99.90;;;;;;5024543;28;20189;-77
2023/07/26 08:47:22;;;;;;;8.55;4.00;;;18.60;99.90;;;;;;5016056;28;20209;-68
2023/07/26 08:49:48;;;;;;;7.25;3.38;;;18.60;99.90;;;;;;5015351;28;20221;-67
2023/07/26 08:52:16;;;;;;;8.90;3.90;;;19.20;99.90;;;;;;5016083;28;20178;-67
2023/07/26 08:54:43;;;;;;;5.97;3.10;;;19.30;99.90;;;;;;5014408;28;20183;-67
2023/07/26 08:57:09;;;;;;;4.63;2.85;;;19.10;99.90;;;;;;5015142;28;20218;-67
2023/07/26 08:59:35;;;;;;;6.43;3.67;;;19.00;99.90;;;;;;5014067;28;20641;-67
2023/07/26 09:02:03;;;;;;;4.68;2.97;;;19.20;99.90;;;;;;5014939;28;20174;-67
2023/07/26 09:04:33;;;;;;;7.05;3.50;;;19.80;99.90;;;;;;5014989;28;20170;-68
2023/07/26 09:10:28;;;;;;;4.97;2.83;;;19.80;99.90;;;;;;5013177;28;20252;-66
2023/07/26 09:13:14;;;;;;;8.82;4.30;;;19.70;99.90;;;;;;5014831;28;20170;-67
2023/07/26 09:15:41;;;;;;;6.65;3.60;;;19.60;99.90;;;;;;5015202;28;20186;-67
2023/07/26 09:18:08;;;;;;;6.55;3.75;;;19.50;99.90;;;;;;5013052;28;20197;-67
2023/07/26 09:20:35;;;;;;;5.53;2.95;;;19.60;99.90;;;;;;5012291;28;20232;-66
2023/07/26 09:23:08;;;;;;;6.70;3.58;;;19.70;99.90;;;;;;5014670;28;20182;-67
2023/07/26 09:25:37;;;;;;;6.57;2.85;;;19.80;99.90;;;;;;5006276;28;20175;-67
2023/07/26 09:28:07;;;;;;;4.88;3.20;;;20.10;99.90;;;;;;5010068;28;20257;-66
2023/07/26 09:30:38;;;;;;;6.68;3.20;;;20.10;99.90;;;;;;5007537;28;20184;-67
2023/07/26 09:33:10;;;;;;;5.15;3.47;;;20.30;99.90;;;;;;5011022;28;20208;-67
2023/07/26 09:35:52;;;;;;;6.10;2.55;;;20.20;99.90;;;;;;5011578;28;20189;-68
2023/07/26 09:38:25;;;;;;;5.30;3.15;;;20.10;99.90;;;;;;5011361;28;20179;-67
2023/07/26 11:10:17;;;;;;;8.27;2.53;;;20.80;99.90;;;;;;4373813;28;20234;-73
2023/07/26 11:12:43;;;;;;;12.38;3.08;;;20.30;99.90;;;;;;4993133;28;20232;-71
2023/07/26 11:15:09;;;;;;;8.18;2.83;;;20.40;99.90;;;;;;4998746;28;20566;-72
2023/07/26 11:17:41;;;;;;;4.72;2.72;;;20.00;99.90;;;;;;5002463;28;20183;-70
2023/07/26 11:20:07;;;;;;;6.95;2.83;;;20.00;99.90;;;;;;5008411;28;20175;-73
2023/07/26 11:22:33;;;;;;;5.78;2.45;;;19.80;1.00;;;;;;5009244;28;20664;-69
2023/07/26 11:25:03;;;;;;;6.50;3.00;;;19.70;1.00;;;;;;5008950;28;20182;-71
2023/07/26 11:27:29;;;;;;;5.85;3.10;;;19.80;1.00;;;;;;5007259;28;20273;-71
2023/07/26 11:30:00;;;;;;;6.40;2.97;;;19.90;1.00;;;;;;5006230;28;20210;-70
2023/07/26 11:32:28;;;;;;;5.75;3.03;;;20.00;1.00;;;;;;5000722;28;20181;-70
2023/07/26 11:34:57;;;;;;;6.00;2.53;;;20.20;1.00;;;;;;5005920;28;20175;-71
2023/07/26 11:37:24;;;;;;;6.55;3.50;;;19.80;99.90;;;;;;5006181;28;20179;-69
2023/07/26 11:40:08;;;;;;;4.30;2.70;;;20.00;99.90;;;;;;5000066;28;20662;-70
2023/07/26 11:42:35;;;;;;;8.32;3.78;;;20.10;99.90;;;;;;5003473;28;20782;-70
2023/07/26 11:45:05;;;;;;;6.85;3.03;;;20.40;1.00;;;;;;5005288;28;20183;-70
2023/07/26 11:47:35;;;;;;;8.10;3.78;;;20.40;1.00;;;;;;5003936;28;20669;-70
2023/07/26 11:50:04;;;;;;;6.47;3.35;;;20.00;9.80;;;;;;5007974;28;20697;-70
2023/07/26 11:52:29;;;;;;;8.02;3.80;;;20.10;1.00;;;;;;5004507;28;20202;-70
2023/07/26 11:54:58;;;;;;;7.20;3.05;;;20.10;1.00;;;;;;4997520;28;20179;-70
2023/07/26 11:57:25;;;;;;;6.68;2.88;;;19.60;1.00;;;;;;5006912;28;20174;-70
2023/07/26 11:59:56;;;;;;;6.88;3.30;;;19.80;1.00;;;;;;5008563;28;20265;-70
2023/07/26 12:02:25;;;;;;;5.75;2.58;;;19.80;1.00;;;;;;5000690;28;20178;-71
2023/07/26 12:05:19;;;;;;;5.50;2.75;;;19.30;1.00;;;;;;5006207;28;20187;-72
2023/07/26 12:07:54;;;;;;;7.95;2.70;;;19.20;99.90;;;;;;5002375;28;20275;-71
2023/07/26 12:10:42;;;;;;;4.03;2.35;;;19.20;99.90;;;;;;5004913;28;20226;-71
2023/07/26 12:13:28;;;;;;;8.02;3.00;;;19.30;1.00;;;;;;5003479;28;20538;-70
2023/07/26 12:16:02;;;;;;;3.92;2.58;;;19.30;1.00;;;;;;5005218;28;20688;-74
2023/07/26 12:18:28;;;;;;;5.15;2.70;;;;;;;;;;5023535;28;20205;-76
2023/07/26 12:20:56;;;;;;;5.25;2.20;;;19.20;99.90;;;;;;4999678;28;20179;-72
2023/07/26 12:23:22;;;;;;;4.93;2.50;;;;;;;;;;5005258;28;20205;-76
2023/07/26 12:25:56;;;;;;;6.50;2.35;;;18.70;99.90;;;;;;5001591;28;20186;-84
2023/07/26 12:28:23;;;;;;;6.80;2.75;;;;;;;;;;5002275;28;20512;-74
2023/07/26 12:30:56;;;;;;;7.00;3.30;;;18.40;1.00;;;;;;5005879;28;20185;-77
2023/07/26 12:33:23;;;;;;;7.22;2.50;;;18.40;1.00;;;;;;5002389;28;20229;-71
2023/07/26 12:35:53;;;;;;;6.43;2.70;;;18.30;1.00;;;;;;4999878;28;20195;-74
2023/07/26 12:38:23;;;;;;;6.05;2.70;;;;;;;;;;5005710;28;20171;-75
2023/07/26 12:40:50;;;;;;;5.82;2.67;;;18.40;1.00;;;;;;5001954;28;20205;-72
2023/07/26 12:43:30;;;;;;;6.32;2.40;;;18.40;99.90;;;;;;5003283;28;20233;-73
2023/07/26 12:45:57;;;;;;;4.10;2.25;;;18.50;82.70;;;;;;4999773;28;20171;-70
2023/07/26 12:48:24;;;;;;;6.03;2.40;;;18.60;1.00;;;;;;5008225;28;20214;-77
2023/07/26 12:50:54;;;;;;;6.28;2.55;;;18.60;1.00;;;;;;5010137;28;20187;-73
2023/07/26 12:53:21;;;;;;;4.32;2.22;;;18.80;1.00;;;;;;5008620;28;20232;-74
2023/07/26 12:55:50;;;;;;;3.50;2.05;;;;;;;;;;5011568;28;20193;-76
2023/07/26 12:58:16;;;;;;;8.82;2.50;;;19.00;99.90;;;;;;5009865;28;20170;-77
2023/07/26 13:00:43;;;;;;;6.85;2.17;;;18.90;99.90;;;;;;5004389;28;20179;-74
2023/07/26 13:03:09;;;;;;;4.85;2.00;;;18.80;99.90;;;;;;5009359;28;20182;-77
2023/07/26 13:05:34;;;;;;;7.45;2.00;;;18.80;1.00;;;;;;5000079;28;20171;-75
2023/07/26 13:08:00;;;;;;;6.05;2.10;;;18.80;1.00;;;;;;5005931;28;20198;-76
2023/07/26 13:10:27;;;;;;;5.25;2.20;;;18.70;1.00;;;;;;5004487;28;20230;-75
2023/07/26 13:12:53;;;;;;;4.82;2.65;;;18.50;82.90;;;;;;5011316;28;20174;-74
2023/07/26 13:15:20;;;;;;;4.53;2.40;;;;;;;;;;5010297;28;20645;-74
2023/07/26 13:17:47;;;;;;;8.05;2.10;;;18.90;1.00;;;;;;5010425;28;20178;-74
2023/07/26 13:20:14;;;;;;;6.78;2.10;;;18.80;99.90;;;;;;5007965;28;20182;-74
2023/07/26 13:22:39;;;;;;;6.03;2.33;;;18.70;1.00;;;;;;5004779;28;20277;-74
2023/07/26 13:25:06;;;;;;;6.43;2.30;;;18.80;88.80;;;;;;5008722;28;20689;-74
2023/07/26 13:27:32;;;;;;;5.05;2.45;;;19.00;99.90;;;;;;5008434;28;20178;-75
2023/07/26 13:29:58;;;;;;;4.70;2.28;;;;;;;;;;5006461;28;20210;-71
2023/07/26 13:32:23;;;;;;;8.23;2.58;;;18.60;1.00;;;;;;5003810;28;20176;-73
2023/07/26 13:34:49;;;;;;;6.20;2.65;;;19.00;1.00;;;;;;5011873;28;20179;-74
2023/07/26 13:37:15;;;;;;;4.05;1.90;;;18.10;1.00;;;;;;5005715;28;20202;-75
2023/07/26 13:39:42;;;;;;;4.47;2.75;;;18.20;1.00;;;;;;5020585;28;20261;-74
2023/07/26 13:42:07;;;;;;;4.82;2.20;;;18.20;1.00;;;;;;5010185;28;20186;-73
2023/07/26 13:44:33;;;;;;;6.72;2.70;;;17.80;99.90;;;;;;5008730;28;20182;-74
2023/07/26 13:46:58;;;;;;;5.60;2.28;;;17.90;99.90;;;;;;5010003;28;20202;-76
2023/07/26 13:49:24;;;;;;;12.50;3.20;;;17.80;99.90;;;;;;5008662;28;20345;-74
2023/07/26 13:51:50;;;;;;;10.40;3.30;;;17.80;99.90;;;;;;5010948;28;20228;-73
2023/07/26 13:54:15;;;;;;;5.50;2.67;;;17.80;99.90;;;;;;5007711;28;20187;-73
2023/07/26 13:56:41;;;;;;;11.30;3.30;;;17.70;99.90;;;;;;5008707;28;20288;-75
2023/07/26 13:59:07;;;;;;;10.60;2.97;;;17.50;99.90;;;;;;5010093;28;20175;-75
2023/07/26 14:01:33;;;;;;;8.18;3.40;;;17.50;99.90;;;;;;5008453;28;20597;-76
2023/07/26 14:03:59;;;;;;;7.40;3.72;;;17.40;99.90;;;;;;5007209;28;20244;-74
2023/07/26 14:06:26;;;;;;;7.57;3.50;;;17.30;99.90;;;;;;5010454;28;20182;-75
2023/07/26 14:08:51;;;;;;;8.55;3.40;;;17.30;99.90;;;;;;5006585;28;20210;-75
2023/07/26 14:11:17;;;;;;;7.55;3.25;;;17.30;99.90;;;;;;5008582;28;20665;-75
2023/07/26 14:13:43;;;;;;;6.95;3.08;;;17.30;99.90;;;;;;5009655;28;20232;-74
2023/07/26 14:16:09;;;;;;;8.23;3.15;;;17.20;99.90;;;;;;5007617;28;20282;-75
2023/07/26 14:18:35;;;;;;;6.80;2.60;;;17.20;99.90;;;;;;5007476;28;20182;-74
2023/07/26 14:21:00;;;;;;;5.18;2.67;;;17.20;99.90;;;;;;5008858;28;20178;-74
2023/07/26 14:23:31;;;;;;;7.13;3.00;;;17.20;99.90;;;;;;4996796;28;20183;-77
2023/07/26 14:25:57;;;;;;;8.93;3.00;;;17.10;99.90;;;;;;5006025;28;20186;-78
2023/07/26 14:28:23;;;;;;;6.35;2.83;;;17.00;99.90;;;;;;5007432;28;20274;-75